createdAt,value
2022-08-17T00:02:26.985Z,27.18
2022-08-17T00:04:54.864Z,27.17
2022-08-17T00:07:21.571Z,27.18
2022-08-17T00:09:48.382Z,27.19
2022-08-17T00:12:42.578Z,27.10
2022-08-17T00:15:02.241Z,27.19
2022-08-17T00:17:29.080Z,27.19
2022-08-17T00:19:55.780Z,27.18
2022-08-17T00:22:33.039Z,26.89
2022-08-17T00:25:07.125Z,27.20
2022-08-17T00:27:34.433Z,27.19
2022-08-17T00:30:01.006Z,27.18
2022-08-17T00:33:14.163Z,27.18
2022-08-17T00:35:17.672Z,27.18
2022-08-17T00:37:44.366Z,27.18
2022-08-17T00:40:15.052Z,27.17
2022-08-17T00:42:42.823Z,27.17
2022-08-17T00:45:12.562Z,27.18
2022-08-17T00:47:39.923Z,27.16
2022-08-17T00:50:10.629Z,27.16
2022-08-17T00:52:43.760Z,27.15
2022-08-17T00:55:11.100Z,27.15
2022-08-17T00:57:45.056Z,27.14
2022-08-17T01:00:17.878Z,27.15
2022-08-17T01:02:47.675Z,27.14
2022-08-17T01:05:18.679Z,27.14
2022-08-17T01:07:47.774Z,27.14
2022-08-17T01:10:59.966Z,27.14
2022-08-17T01:13:04.315Z,27.13
2022-08-17T01:15:34.258Z,27.13
2022-08-17T01:18:00.934Z,27.12
2022-08-17T01:20:27.825Z,27.11
2022-08-17T01:22:54.588Z,27.11
2022-08-17T01:25:22.249Z,27.10
2022-08-17T01:27:49.749Z,27.10
2022-08-17T01:30:58.042Z,27.09
2022-08-17T01:33:04.680Z,27.09
2022-08-17T01:35:31.823Z,27.05
2022-08-17T01:37:58.509Z,27.09
2022-08-17T01:40:35.200Z,27.08
2022-08-17T01:43:05.857Z,27.07
2022-08-17T01:45:33.845Z,27.07
2022-08-17T01:48:01.034Z,27.06
2022-08-17T01:50:32.121Z,27.06
2022-08-17T01:53:09.349Z,26.97
2022-08-17T01:55:45.608Z,27.05
2022-08-17T01:58:12.388Z,27.04
2022-08-17T02:00:46.825Z,27.03
2022-08-17T02:03:27.124Z,27.03
2022-08-17T02:05:53.785Z,27.02
2022-08-17T02:08:32.551Z,27.03
2022-08-17T02:11:11.717Z,27.03
2022-08-17T02:13:38.929Z,27.03
2022-08-17T02:16:05.913Z,27.02
2022-08-17T02:18:32.874Z,27.01
2022-08-17T02:20:59.636Z,27.02
2022-08-17T02:23:30.314Z,27.01
2022-08-17T02:25:59.883Z,27.00
2022-08-17T02:28:28.305Z,26.99
2022-08-17T02:31:01.436Z,26.98
2022-08-17T02:33:41.598Z,26.97
2022-08-17T02:36:12.542Z,26.98
2022-08-17T02:38:41.144Z,26.96
2022-08-17T02:41:08.815Z,26.96
2022-08-17T02:43:35.731Z,26.94
2022-08-17T02:46:02.333Z,26.95
2022-08-17T02:48:30.837Z,26.95
2022-08-17T02:50:59.357Z,26.94
2022-08-17T02:53:26.392Z,26.94
2022-08-17T02:55:53.407Z,26.94
2022-08-17T02:58:34.806Z,26.92
2022-08-17T03:01:04.774Z,26.91
2022-08-17T03:03:31.404Z,26.91
2022-08-17T03:05:58.025Z,26.90
2022-08-17T03:08:25.505Z,26.89
2022-08-17T03:10:52.554Z,26.86
2022-08-17T03:13:20.024Z,26.88
2022-08-17T03:15:48.421Z,26.89
2022-08-17T03:18:24.498Z,26.88
2022-08-17T03:20:58.075Z,26.86
2022-08-17T03:23:25.919Z,26.86
2022-08-17T03:25:55.153Z,26.84
2022-08-17T03:28:23.684Z,26.85
2022-08-17T03:30:51.249Z,26.85
2022-08-17T03:33:19.109Z,26.84
2022-08-17T03:35:46.343Z,26.82
2022-08-17T03:38:15.845Z,26.82
2022-08-17T03:40:59.056Z,26.82
2022-08-17T03:43:31.895Z,26.81
2022-08-17T03:46:27.704Z,26.81
2022-08-17T03:49:17.551Z,26.80
2022-08-17T03:52:02.911Z,26.72
2022-08-17T03:54:48.108Z,26.77
2022-08-17T03:57:14.953Z,26.76
2022-08-17T03:59:41.628Z,26.74
2022-08-17T04:02:12.556Z,26.74
2022-08-17T04:07:04.005Z,26.66
2022-08-17T04:09:30.890Z,26.73
2022-08-17T04:11:57.547Z,26.72
2022-08-17T04:14:31.228Z,26.71
2022-08-17T04:16:58.116Z,26.70
2022-08-17T04:19:24.746Z,26.70
2022-08-17T04:21:51.344Z,26.69
2022-08-17T04:24:17.985Z,26.70
2022-08-17T04:26:53.993Z,26.70
2022-08-17T04:29:21.734Z,26.67
2022-08-17T04:31:48.452Z,26.69
2022-08-17T04:34:16.344Z,26.70
2022-08-17T04:36:47.958Z,26.66
2022-08-17T04:39:17.268Z,26.70
2022-08-17T04:42:02.345Z,26.69
2022-08-17T04:44:37.678Z,26.66
2022-08-17T04:47:04.807Z,26.66
2022-08-17T04:49:32.516Z,26.64
2022-08-17T04:52:04.392Z,26.63
2022-08-17T04:54:31.778Z,26.65
2022-08-17T04:56:58.435Z,26.66
2022-08-17T04:59:25.067Z,26.66
2022-08-17T05:01:52.333Z,26.67
2022-08-17T05:04:33.802Z,26.67
2022-08-17T05:07:03.974Z,26.60
2022-08-17T05:09:30.939Z,26.54
2022-08-17T05:12:01.617Z,26.69
2022-08-17T05:14:33.420Z,26.70
2022-08-17T05:17:01.421Z,26.71
2022-08-17T05:19:28.648Z,26.71
2022-08-17T05:21:55.325Z,26.71
2022-08-17T05:24:38.293Z,26.72
2022-08-17T05:27:06.655Z,26.69
2022-08-17T05:29:35.469Z,26.71
2022-08-17T05:32:38.642Z,26.71
2022-08-17T05:35:00.169Z,26.71
2022-08-17T05:37:26.788Z,26.71
2022-08-17T05:39:54.343Z,26.73
2022-08-17T05:42:21.590Z,26.72
2022-08-17T05:44:48.367Z,26.73
2022-08-17T05:47:14.985Z,26.74
2022-08-17T05:49:41.620Z,26.46
2022-08-17T05:52:20.432Z,26.71
2022-08-17T05:55:11.693Z,26.77
2022-08-17T05:57:53.488Z,26.79
2022-08-17T06:00:43.045Z,26.79
2022-08-17T06:03:27.161Z,26.81
2022-08-17T06:06:03.451Z,26.78
2022-08-17T06:08:42.349Z,26.81
2022-08-17T06:11:53.676Z,26.81
2022-08-17T06:14:59.355Z,26.81
2022-08-17T06:17:28.053Z,26.81
2022-08-17T06:20:02.704Z,26.82
2022-08-17T06:22:34.428Z,26.84
2022-08-17T06:25:02.810Z,26.84
2022-08-17T06:27:45.016Z,26.86
2022-08-17T06:30:15.986Z,26.86
2022-08-17T06:32:45.688Z,26.89
2022-08-17T06:35:17.144Z,26.91
2022-08-17T06:38:08.493Z,26.92
2022-08-17T06:40:57.050Z,26.53
2022-08-17T06:43:48.520Z,26.95
2022-08-17T06:46:30.576Z,26.97
2022-08-17T06:49:14.642Z,26.98
2022-08-17T06:51:46.308Z,27.01
2022-08-17T06:54:38.810Z,27.01
2022-08-17T06:57:18.238Z,27.04
2022-08-17T06:59:55.186Z,27.06
2022-08-17T07:03:02.240Z,27.07
2022-08-17T07:05:38.853Z,27.08
2022-08-17T07:08:30.050Z,27.11
2022-08-17T07:11:03.768Z,27.11
2022-08-17T07:13:50.520Z,27.13
2022-08-17T07:16:41.050Z,27.14
2022-08-17T07:19:10.887Z,27.14
2022-08-17T07:21:54.956Z,27.16
2022-08-17T07:24:33.546Z,27.17
2022-08-17T07:27:13.668Z,27.20
2022-08-17T07:29:50.927Z,27.20
2022-08-17T07:32:24.070Z,27.21
2022-08-17T07:35:24.949Z,27.24
2022-08-17T07:38:24.842Z,27.26
2022-08-17T07:41:02.685Z,27.27
2022-08-17T07:43:31.489Z,27.28
2022-08-17T07:46:35.416Z,27.30
2022-08-17T07:49:08.074Z,27.31
2022-08-17T07:51:43.806Z,27.32
2022-08-17T07:54:22.516Z,27.34
2022-08-17T07:57:15.393Z,27.34
2022-08-17T08:00:01.411Z,27.36
2022-08-17T08:02:40.632Z,27.38
2022-08-17T08:07:55.541Z,27.40
2022-08-17T08:10:35.441Z,27.41
2022-08-17T08:13:14.545Z,27.43
2022-08-17T08:15:53.709Z,27.44
2022-08-17T08:18:54.392Z,27.45
2022-08-17T08:21:36.475Z,27.47
2022-08-17T08:24:24.049Z,27.48
2022-08-17T08:27:02.897Z,27.49
2022-08-17T08:29:50.552Z,27.53
2022-08-17T08:32:36.844Z,27.56
2022-08-17T08:39:42.359Z,27.58
2022-08-17T08:42:20.609Z,27.62
2022-08-17T08:45:05.863Z,27.66
2022-08-17T08:48:22.719Z,27.71
2022-08-17T08:51:05.804Z,27.73
2022-08-17T08:54:01.164Z,27.76
2022-08-17T08:56:49.707Z,27.80
2022-08-17T08:59:34.004Z,27.83
2022-08-17T09:02:34.975Z,27.84
2022-08-17T09:05:14.219Z,27.86
2022-08-17T09:07:57.620Z,27.88
2022-08-17T09:10:25.400Z,27.90
2022-08-17T09:13:10.151Z,27.91
2022-08-17T09:15:48.157Z,27.93
2022-08-17T09:18:59.844Z,27.95
2022-08-17T09:21:22.507Z,27.98
2022-08-17T09:24:00.139Z,27.99
2022-08-17T09:26:39.425Z,28.00
2022-08-17T09:29:12.881Z,28.01
2022-08-17T09:32:03.509Z,28.04
2022-08-17T09:37:06.682Z,28.06
2022-08-17T09:39:41.891Z,28.08
2022-08-17T09:42:29.168Z,28.10
2022-08-17T09:45:08.137Z,28.11
2022-08-17T09:47:46.683Z,28.14
2022-08-17T09:52:42.096Z,28.14
2022-08-17T09:55:08.724Z,28.18
2022-08-17T09:57:54.599Z,28.20
2022-08-17T10:00:27.919Z,28.21
2022-08-17T10:03:16.099Z,28.23
2022-08-17T10:06:02.717Z,28.24
2022-08-17T10:08:55.283Z,28.26
2022-08-17T10:12:00.723Z,28.20
2022-08-17T10:14:56.496Z,28.27
2022-08-17T10:17:26.293Z,28.28
2022-08-17T10:20:34.009Z,28.30
2022-08-17T10:23:26.996Z,28.31
2022-08-17T10:26:15.783Z,28.32
2022-08-17T10:29:12.517Z,28.33
2022-08-17T10:31:45.929Z,28.33
2022-08-17T10:34:18.837Z,28.34
2022-08-17T10:37:15.074Z,28.35
2022-08-17T10:40:00.239Z,28.37
2022-08-17T10:42:33.720Z,28.37
2022-08-17T10:45:16.126Z,28.37
2022-08-17T10:48:07.769Z,28.37
2022-08-17T10:52:55.901Z,28.39
2022-08-17T10:55:25.698Z,28.39
2022-08-17T10:58:13.400Z,28.40
2022-08-17T11:00:39.950Z,28.40
2022-08-17T11:03:21.224Z,28.34
2022-08-17T11:06:17.119Z,28.42
2022-08-17T11:08:57.572Z,28.43
2022-08-17T11:11:59.785Z,28.44
2022-08-17T11:14:39.148Z,28.45
2022-08-17T11:17:13.047Z,28.45
2022-08-17T11:20:05.212Z,28.46
2022-08-17T11:23:09.434Z,28.48
2022-08-17T11:25:47.880Z,28.48
2022-08-17T11:28:19.285Z,28.49
2022-08-17T11:30:50.997Z,28.50
2022-08-17T11:33:29.673Z,28.50
2022-08-17T11:36:22.836Z,28.51
2022-08-17T11:39:06.193Z,28.53
2022-08-17T11:42:00.824Z,28.53
2022-08-17T11:44:44.131Z,28.53
2022-08-17T11:48:23.741Z,28.54
2022-08-17T11:51:12.449Z,28.55
2022-08-17T11:53:39.211Z,28.56
2022-08-17T11:56:41.108Z,28.56
2022-08-17T11:59:33.260Z,28.56
2022-08-17T12:02:02.067Z,28.59
2022-08-17T12:04:35.012Z,28.61
2022-08-17T12:07:18.020Z,28.61
2022-08-17T12:09:49.726Z,28.62
2022-08-17T12:12:33.151Z,28.64
2022-08-17T12:15:16.699Z,28.64
2022-08-17T12:17:55.978Z,28.64
2022-08-17T12:20:43.989Z,28.65
2022-08-17T12:23:33.751Z,28.64
2022-08-17T12:26:09.929Z,28.65
2022-08-17T12:28:39.180Z,28.65
2022-08-17T12:31:20.780Z,28.67
2022-08-17T12:33:51.642Z,28.67
2022-08-17T12:36:24.866Z,28.68
2022-08-17T12:38:59.390Z,28.68
2022-08-17T12:41:46.921Z,28.67
2022-08-17T12:44:21.425Z,28.70
2022-08-17T12:47:19.383Z,28.70
2022-08-17T12:49:53.509Z,28.70
2022-08-17T12:52:26.957Z,28.71
2022-08-17T12:55:03.401Z,28.71
2022-08-17T12:57:38.722Z,28.72
2022-08-17T13:00:13.392Z,28.73
2022-08-17T13:02:54.186Z,28.72
2022-08-17T13:05:25.546Z,28.73
2022-08-17T13:07:53.361Z,28.73
2022-08-17T13:10:32.461Z,28.73
2022-08-17T13:13:05.882Z,28.74
2022-08-17T13:15:44.625Z,28.74
2022-08-17T13:18:29.788Z,28.74
2022-08-17T13:20:59.202Z,28.76
2022-08-17T13:23:29.176Z,28.75
2022-08-17T13:26:02.837Z,28.76
2022-08-17T13:28:30.602Z,28.76
2022-08-17T13:31:32.272Z,28.77
2022-08-17T13:34:24.039Z,28.77
2022-08-17T13:37:32.618Z,28.76
2022-08-17T13:40:08.346Z,28.76
2022-08-17T13:42:51.680Z,28.78
2022-08-17T13:45:35.326Z,28.78
2022-08-17T13:48:19.358Z,28.79
2022-08-17T13:51:03.965Z,28.80
2022-08-17T13:53:36.943Z,28.79
2022-08-17T13:56:33.504Z,28.80
2022-08-17T13:59:12.698Z,28.82
2022-08-17T14:01:53.166Z,28.83
2022-08-17T14:04:22.798Z,28.52
2022-08-17T14:06:57.927Z,28.85
2022-08-17T14:09:37.074Z,28.82
2022-08-17T14:12:11.365Z,28.86
2022-08-17T14:14:38.858Z,28.89
2022-08-17T14:17:05.639Z,28.89
2022-08-17T14:19:36.205Z,28.90
2022-08-17T14:22:04.959Z,28.91
2022-08-17T14:24:35.062Z,28.91
2022-08-17T14:27:04.011Z,28.92
2022-08-17T14:29:32.463Z,28.92
2022-08-17T14:32:05.020Z,28.94
2022-08-17T14:34:31.599Z,28.94
2022-08-17T14:36:58.589Z,28.94
2022-08-17T14:39:25.300Z,28.95
2022-08-17T14:41:52.950Z,28.95
2022-08-17T14:44:19.569Z,28.94
2022-08-17T14:46:46.308Z,28.94
2022-08-17T14:49:15.566Z,28.93
2022-08-17T14:51:44.191Z,28.94
2022-08-17T14:54:33.291Z,28.94
2022-08-17T14:57:24.790Z,28.94
2022-08-17T14:59:48.822Z,28.95
2022-08-17T15:02:21.647Z,28.93
2022-08-17T15:05:04.394Z,28.94
2022-08-17T15:07:31.718Z,28.94
2022-08-17T15:10:02.092Z,28.94
2022-08-17T15:12:33.230Z,28.94
2022-08-17T15:15:01.949Z,28.84
2022-08-17T15:17:44.737Z,28.89
2022-08-17T15:20:22.797Z,28.94
2022-08-17T15:22:50.508Z,28.91
2022-08-17T15:25:19.195Z,28.94
2022-08-17T15:27:46.152Z,28.93
2022-08-17T15:30:13.319Z,28.94
2022-08-17T15:32:45.855Z,28.95
2022-08-17T15:35:27.220Z,28.94
2022-08-17T15:38:10.596Z,28.95
2022-08-17T15:40:46.999Z,28.94
2022-08-17T15:43:17.357Z,28.95
2022-08-17T15:45:45.238Z,28.94
2022-08-17T15:48:40.727Z,28.95
2022-08-17T15:51:21.610Z,28.93
2022-08-17T15:53:59.197Z,28.95
2022-08-17T15:56:26.847Z,28.93
2022-08-17T15:58:55.129Z,28.89
2022-08-17T16:03:01.470Z,28.93
2022-08-17T16:04:29.711Z,28.92
2022-08-17T16:06:57.344Z,28.93
2022-08-17T16:09:23.866Z,28.93
2022-08-17T16:11:52.169Z,28.95
2022-08-17T16:14:22.400Z,28.93
2022-08-17T16:16:50.598Z,28.94
2022-08-17T16:19:17.264Z,28.94
2022-08-17T16:21:43.830Z,28.91
2022-08-17T16:24:13.626Z,28.95
2022-08-17T16:26:43.574Z,28.97
2022-08-17T16:29:10.375Z,28.98
2022-08-17T16:31:37.730Z,28.89
2022-08-17T16:34:17.970Z,28.98
2022-08-17T16:36:54.936Z,29.02
2022-08-17T16:39:27.496Z,29.03
2022-08-17T16:41:55.846Z,29.03
2022-08-17T16:44:22.685Z,29.04
2022-08-17T16:46:50.218Z,29.02
2022-08-17T16:49:26.778Z,29.05
2022-08-17T16:52:04.230Z,29.06
2022-08-17T16:54:30.817Z,29.05
2022-08-17T16:56:57.383Z,29.08
2022-08-17T16:59:31.127Z,29.05
2022-08-17T17:02:10.931Z,29.07
2022-08-17T17:04:43.384Z,29.06
2022-08-17T17:07:34.875Z,29.06
2022-08-17T17:10:15.801Z,29.05
2022-08-17T17:13:02.231Z,29.04
2022-08-17T17:15:56.953Z,28.97
2022-08-17T17:18:37.645Z,29.04
2022-08-17T17:21:06.424Z,28.95
2022-08-17T17:23:41.108Z,29.05
2022-08-17T17:26:29.194Z,29.04
2022-08-17T17:29:18.806Z,29.04
2022-08-17T17:32:10.341Z,29.04
2022-08-17T17:34:39.726Z,29.03
2022-08-17T17:37:14.142Z,29.02
2022-08-17T17:39:49.052Z,29.04
2022-08-17T17:42:22.007Z,29.03
2022-08-17T17:44:59.150Z,29.02
2022-08-17T17:47:26.656Z,29.02
2022-08-17T17:49:53.243Z,29.03
2022-08-17T17:52:37.974Z,29.02
2022-08-17T17:55:04.521Z,29.02
2022-08-17T17:58:05.345Z,29.02
2022-08-17T18:00:54.076Z,29.00
2022-08-17T18:03:51.597Z,29.00
2022-08-17T18:06:29.548Z,29.00
2022-08-17T18:09:25.370Z,28.99
2022-08-17T18:12:00.368Z,28.99
2022-08-17T18:14:42.673Z,28.99
2022-08-17T18:17:09.180Z,28.98
2022-08-17T18:19:39.932Z,28.99
2022-08-17T18:22:19.629Z,28.89
2022-08-17T18:24:48.938Z,28.98
2022-08-17T18:27:36.820Z,28.98
2022-08-17T18:30:26.857Z,28.96
2022-08-17T18:32:53.577Z,28.96
2022-08-17T18:35:20.284Z,28.95
2022-08-17T18:37:55.721Z,28.93
2022-08-17T18:44:56.891Z,28.99
2022-08-17T18:47:28.256Z,28.97
2022-08-17T18:50:26.180Z,28.96
2022-08-17T18:52:55.240Z,28.83
2022-08-17T18:55:27.786Z,28.91
2022-08-17T18:58:13.198Z,28.88
2022-08-17T19:00:43.470Z,28.87
2022-08-17T19:03:16.601Z,28.85
2022-08-17T19:05:56.172Z,28.80
2022-08-17T19:08:28.843Z,28.82
2022-08-17T19:11:01.170Z,28.80
2022-08-17T19:13:44.087Z,28.77
2022-08-17T19:16:20.310Z,28.73
2022-08-17T19:18:47.548Z,28.73
2022-08-17T19:21:25.422Z,28.71
2022-08-17T19:24:19.551Z,28.67
2022-08-17T19:27:16.175Z,28.72
2022-08-17T19:29:54.896Z,28.65
2022-08-17T19:32:25.663Z,28.73
2022-08-17T19:34:52.859Z,28.74
2022-08-17T19:37:25.452Z,28.73
2022-08-17T19:40:24.434Z,28.72
2022-08-17T19:43:14.681Z,28.70
2022-08-17T19:45:47.252Z,28.69
2022-08-17T19:48:21.263Z,28.66
2022-08-17T19:50:52.664Z,28.66
2022-08-17T19:53:36.854Z,28.64
2022-08-17T19:56:25.078Z,28.64
2022-08-17T19:59:29.612Z,28.64
2022-08-17T20:02:38.404Z,28.61
2022-08-17T20:05:25.935Z,28.58
2022-08-17T20:07:56.613Z,28.55
2022-08-17T20:10:28.722Z,28.53
2022-08-17T20:13:03.045Z,28.52
2022-08-17T20:15:33.474Z,28.48
2022-08-17T20:20:31.157Z,28.35
2022-08-17T20:23:22.868Z,28.28
2022-08-17T20:26:14.875Z,28.22
2022-08-17T20:29:10.057Z,28.15
2022-08-17T20:31:46.708Z,28.11
2022-08-17T20:34:25.646Z,28.07
2022-08-17T20:37:26.167Z,28.02
2022-08-17T20:39:52.941Z,28.02
2022-08-17T20:42:19.745Z,28.00
2022-08-17T20:44:52.695Z,27.99
2022-08-17T20:48:00.832Z,27.97
2022-08-17T20:50:33.662Z,27.93
2022-08-17T20:53:03.231Z,27.92
2022-08-17T20:55:51.404Z,27.91
2022-08-17T20:58:30.661Z,27.88
2022-08-17T21:00:58.942Z,27.88
2022-08-17T21:03:39.976Z,27.87
2022-08-17T21:06:18.188Z,27.75
2022-08-17T21:09:12.810Z,27.83
2022-08-17T21:12:02.654Z,27.82
2022-08-17T21:14:58.645Z,27.81
2022-08-17T21:17:38.210Z,27.77
2022-08-17T21:20:23.920Z,27.69
2022-08-17T21:23:09.170Z,27.75
2022-08-17T21:25:48.336Z,27.72
2022-08-17T21:28:35.619Z,27.70
2022-08-17T21:31:08.510Z,27.69
2022-08-17T21:33:39.934Z,27.68
2022-08-17T21:36:12.947Z,27.66
2022-08-17T21:38:57.794Z,27.64
2022-08-17T21:41:29.796Z,27.63
2022-08-17T21:44:18.058Z,27.64
2022-08-17T21:46:49.245Z,27.67
2022-08-17T21:49:19.812Z,27.66
2022-08-17T21:51:54.049Z,27.72
2022-08-17T21:54:31.370Z,27.72
2022-08-17T21:57:03.825Z,27.73
2022-08-17T22:02:06.468Z,27.73
2022-08-17T22:04:34.677Z,27.72
2022-08-17T22:07:04.643Z,27.72
2022-08-17T22:09:53.397Z,27.73
2022-08-17T22:12:22.699Z,27.72
2022-08-17T22:15:04.098Z,27.70
2022-08-17T22:17:35.331Z,27.69
2022-08-17T22:20:09.473Z,27.66
2022-08-17T22:23:18.269Z,27.66
2022-08-17T22:26:04.858Z,27.62
2022-08-17T22:28:46.034Z,27.61
2022-08-17T22:33:49.618Z,27.61
2022-08-17T22:36:33.517Z,27.61
2022-08-17T22:39:22.681Z,27.61
2022-08-17T22:42:00.354Z,27.60
2022-08-17T22:44:37.732Z,27.59
2022-08-17T22:47:11.433Z,27.55
2022-08-17T22:49:59.134Z,27.57
2022-08-17T22:52:56.026Z,27.54
2022-08-17T22:55:42.116Z,27.54
2022-08-17T22:58:42.115Z,27.54
2022-08-17T23:01:25.979Z,27.54
2022-08-17T23:04:01.302Z,27.53
2022-08-17T23:06:29.673Z,27.51
2022-08-17T23:11:16.816Z,27.46
2022-08-17T23:13:44.395Z,27.41
2022-08-17T23:18:32.555Z,27.37
2022-08-17T23:20:59.690Z,27.35
2022-08-17T23:23:26.559Z,27.34
2022-08-17T23:25:54.392Z,27.36
2022-08-17T23:28:21.498Z,27.36
2022-08-17T23:30:48.542Z,27.38
2022-08-17T23:33:41.778Z,27.39
2022-08-17T23:36:16.782Z,27.38
2022-08-17T23:38:45.774Z,27.27
2022-08-17T23:41:19.267Z,27.36
2022-08-17T23:43:48.843Z,27.34
2022-08-17T23:48:41.042Z,27.28
2022-08-17T23:51:11.519Z,27.26
2022-08-17T23:53:44.046Z,27.23
2022-08-17T23:56:11.678Z,26.90
